sensor_id;sensor_type;location;lat;lon;timestamp;temperature;humidity
1429;DHT22;708;51.442;7.016;2024-01-30T00:01:58;11.00;36.80
1429;DHT22;708;51.442;7.016;2024-01-30T00:04:26;11.00;96.60
1429;DHT22;708;51.442;7.016;2024-01-30T00:06:53;11.00;99.90
1429;DHT22;708;51.442;7.016;2024-01-30T00:09:20;11.00;99.90
1429;DHT22;708;51.442;7.016;2024-01-30T00:11:47;11.00;99.90
1429;DHT22;708;51.442;7.016;2024-01-30T00:14:14;11.00;99.90
1429;DHT22;708;51.442;7.016;2024-01-30T00:16:40;11.00;99.90
1429;DHT22;708;51.442;7.016;2024-01-30T00:19:08;11.00;99.90
1429;DHT22;708;51.442;7.016;2024-01-30T00:21:36;11.00;99.90
1429;DHT22;708;51.442;7.016;2024-01-30T00:24:04;11.00;99.90
1429;DHT22;708;51.442;7.016;2024-01-30T00:26:30;11.00;99.90
1429;DHT22;708;51.442;7.016;2024-01-30T00:28:57;11.10;99.90
1429;DHT22;708;51.442;7.016;2024-01-30T00:31:24;11.10;1.00
1429;DHT22;708;51.442;7.016;2024-01-30T00:33:51;11.10;1.00
1429;DHT22;708;51.442;7.016;2024-01-30T00:36:18;11.10;1.00
1429;DHT22;708;51.442;7.016;2024-01-30T00:38:46;11.10;1.00
1429;DHT22;708;51.442;7.016;2024-01-30T00:41:13;11.20;99.90
1429;DHT22;708;51.442;7.016;2024-01-30T00:43:40;11.20;99.90
1429;DHT22;708;51.442;7.016;2024-01-30T00:46:07;11.20;99.90
1429;DHT22;708;51.442;7.016;2024-01-30T00:48:34;11.20;81.10
1429;DHT22;708;51.442;7.016;2024-01-30T00:51:01;11.20;1.00
1429;DHT22;708;51.442;7.016;2024-01-30T00:53:28;11.30;1.00
1429;DHT22;708;51.442;7.016;2024-01-30T00:55:56;11.20;1.00
1429;DHT22;708;51.442;7.016;2024-01-30T00:58:23;11.20;1.00
1429;DHT22;708;51.442;7.016;2024-01-30T01:00:50;11.20;1.00
1429;DHT22;708;51.442;7.016;2024-01-30T01:03:17;11.20;1.00
1429;DHT22;708;51.442;7.016;2024-01-30T01:05:44;11.20;1.00
1429;DHT22;708;51.442;7.016;2024-01-30T01:08:11;11.20;1.00
1429;DHT22;708;51.442;7.016;2024-01-30T01:10:38;11.20;1.00
1429;DHT22;708;51.442;7.016;2024-01-30T01:13:06;11.20;1.00
1429;DHT22;708;51.442;7.016;2024-01-30T01:15:32;11.20;1.00
1429;DHT22;708;51.442;7.016;2024-01-30T01:17:59;11.10;1.00
1429;DHT22;708;51.442;7.016;2024-01-30T01:20:26;11.10;1.00
1429;DHT22;708;51.442;7.016;2024-01-30T01:22:53;11.10;1.00
1429;DHT22;708;51.442;7.016;2024-01-30T01:25:20;11.00;1.00
1429;DHT22;708;51.442;7.016;2024-01-30T01:27:47;11.00;1.00
1429;DHT22;708;51.442;7.016;2024-01-30T01:30:18;11.00;1.00
1429;DHT22;708;51.442;7.016;2024-01-30T01:32:47;10.90;35.50
1429;DHT22;708;51.442;7.016;2024-01-30T01:35:20;10.90;99.90
1429;DHT22;708;51.442;7.016;2024-01-30T01:37:48;10.90;99.90
1429;DHT22;708;51.442;7.016;2024-01-30T01:40:20;10.90;99.90
1429;DHT22;708;51.442;7.016;2024-01-30T01:42:47;10.90;99.90
1429;DHT22;708;51.442;7.016;2024-01-30T01:45:15;10.90;99.90
1429;DHT22;708;51.442;7.016;2024-01-30T01:47:44;10.90;99.90
1429;DHT22;708;51.442;7.016;2024-01-30T01:50:12;10.90;99.90
1429;DHT22;708;51.442;7.016;2024-01-30T01:52:40;10.90;99.90
1429;DHT22;708;51.442;7.016;2024-01-30T01:55:08;10.80;1.00
1429;DHT22;708;51.442;7.016;2024-01-30T01:57:35;10.80;1.00
1429;DHT22;708;51.442;7.016;2024-01-30T02:00:02;10.80;1.00
1429;DHT22;708;51.442;7.016;2024-01-30T02:02:31;10.80;1.00
1429;DHT22;708;51.442;7.016;2024-01-30T02:05:01;10.80;28.60
1429;DHT22;708;51.442;7.016;2024-01-30T02:07:28;10.80;87.50
1429;DHT22;708;51.442;7.016;2024-01-30T02:09:55;10.70;92.20
1429;DHT22;708;51.442;7.016;2024-01-30T02:12:22;10.80;99.90
1429;DHT22;708;51.442;7.016;2024-01-30T02:14:49;10.80;99.90
1429;DHT22;708;51.442;7.016;2024-01-30T02:17:16;10.70;99.90
1429;DHT22;708;51.442;7.016;2024-01-30T02:19:43;10.70;1.00
1429;DHT22;708;51.442;7.016;2024-01-30T02:22:11;10.70;1.00
1429;DHT22;708;51.442;7.016;2024-01-30T02:24:39;10.70;1.00
1429;DHT22;708;51.442;7.016;2024-01-30T02:27:06;10.70;18.40
1429;DHT22;708;51.442;7.016;2024-01-30T02:29:32;10.70;75.00
1429;DHT22;708;51.442;7.016;2024-01-30T02:31:59;10.70;99.90
1429;DHT22;708;51.442;7.016;2024-01-30T02:34:26;10.70;99.90
1429;DHT22;708;51.442;7.016;2024-01-30T02:36:53;10.70;99.90
1429;DHT22;708;51.442;7.016;2024-01-30T02:39:25;10.70;99.90
1429;DHT22;708;51.442;7.016;2024-01-30T02:41:59;10.70;99.90
1429;DHT22;708;51.442;7.016;2024-01-30T02:44:26;10.70;99.90
1429;DHT22;708;51.442;7.016;2024-01-30T02:46:53;10.70;99.90
1429;DHT22;708;51.442;7.016;2024-01-30T02:49:20;10.70;99.90
1429;DHT22;708;51.442;7.016;2024-01-30T02:51:47;10.70;99.90
1429;DHT22;708;51.442;7.016;2024-01-30T02:54:14;10.70;99.90
1429;DHT22;708;51.442;7.016;2024-01-30T02:56:43;10.70;99.90
1429;DHT22;708;51.442;7.016;2024-01-30T02:59:10;10.70;99.90
1429;DHT22;708;51.442;7.016;2024-01-30T03:01:42;10.70;99.90
1429;DHT22;708;51.442;7.016;2024-01-30T03:04:09;10.70;99.90
1429;DHT22;708;51.442;7.016;2024-01-30T03:06:36;10.70;99.90
1429;DHT22;708;51.442;7.016;2024-01-30T03:09:03;10.70;99.90
1429;DHT22;708;51.442;7.016;2024-01-30T03:11:30;10.80;99.90
1429;DHT22;708;51.442;7.016;2024-01-30T03:13:58;10.80;99.90
1429;DHT22;708;51.442;7.016;2024-01-30T03:16:25;10.80;55.50
1429;DHT22;708;51.442;7.016;2024-01-30T03:18:52;10.80;93.30
1429;DHT22;708;51.442;7.016;2024-01-30T03:21:18;10.80;99.00
1429;DHT22;708;51.442;7.016;2024-01-30T03:23:45;10.80;29.00
1429;DHT22;708;51.442;7.016;2024-01-30T03:26:12;10.80;1.00
1429;DHT22;708;51.442;7.016;2024-01-30T03:28:40;10.80;1.00
1429;DHT22;708;51.442;7.016;2024-01-30T03:31:08;10.80;1.00
1429;DHT22;708;51.442;7.016;2024-01-30T03:33:36;10.80;1.00
1429;DHT22;708;51.442;7.016;2024-01-30T03:36:04;10.80;1.00
1429;DHT22;708;51.442;7.016;2024-01-30T03:38:31;10.80;1.00
1429;DHT22;708;51.442;7.016;2024-01-30T03:40:59;10.80;1.00
1429;DHT22;708;51.442;7.016;2024-01-30T03:43:25;10.90;1.00
1429;DHT22;708;51.442;7.016;2024-01-30T03:45:52;10.90;99.90
1429;DHT22;708;51.442;7.016;2024-01-30T03:48:21;10.90;99.90
1429;DHT22;708;51.442;7.016;2024-01-30T03:50:48;10.90;99.90
1429;DHT22;708;51.442;7.016;2024-01-30T03:53:15;11.00;99.90
1429;DHT22;708;51.442;7.016;2024-01-30T03:55:41;11.00;89.20
1429;DHT22;708;51.442;7.016;2024-01-30T03:58:08;11.00;20.50
1429;DHT22;708;51.442;7.016;2024-01-30T04:00:35;11.00;1.00
1429;DHT22;708;51.442;7.016;2024-01-30T04:03:02;11.00;1.00
1429;DHT22;708;51.442;7.016;2024-01-30T04:05:30;11.00;1.00
1429;DHT22;708;51.442;7.016;2024-01-30T04:07:57;11.00;1.00
1429;DHT22;708;51.442;7.016;2024-01-30T04:10:24;11.00;1.00
1429;DHT22;708;51.442;7.016;2024-01-30T04:12:51;11.00;1.00
1429;DHT22;708;51.442;7.016;2024-01-30T04:15:19;11.00;1.00
1429;DHT22;708;51.442;7.016;2024-01-30T04:17:46;11.00;1.00
1429;DHT22;708;51.442;7.016;2024-01-30T04:20:14;10.90;1.00
1429;DHT22;708;51.442;7.016;2024-01-30T04:22:43;11.00;1.00
1429;DHT22;708;51.442;7.016;2024-01-30T04:25:10;10.90;1.00
1429;DHT22;708;51.442;7.016;2024-01-30T04:27:37;11.00;1.00
1429;DHT22;708;51.442;7.016;2024-01-30T04:30:05;11.00;1.00
1429;DHT22;708;51.442;7.016;2024-01-30T04:32:32;11.00;1.00
1429;DHT22;708;51.442;7.016;2024-01-30T04:34:59;11.00;1.00
1429;DHT22;708;51.442;7.016;2024-01-30T04:37:26;11.00;1.00
1429;DHT22;708;51.442;7.016;2024-01-30T04:39:54;11.00;1.00
1429;DHT22;708;51.442;7.016;2024-01-30T04:42:21;11.00;1.00
1429;DHT22;708;51.442;7.016;2024-01-30T04:44:48;11.10;1.00
1429;DHT22;708;51.442;7.016;2024-01-30T04:47:15;11.10;99.90
1429;DHT22;708;51.442;7.016;2024-01-30T04:49:41;11.10;99.90
1429;DHT22;708;51.442;7.016;2024-01-30T04:52:09;11.10;99.90
1429;DHT22;708;51.442;7.016;2024-01-30T04:54:36;11.10;99.90
1429;DHT22;708;51.442;7.016;2024-01-30T04:57:04;11.20;99.90
1429;DHT22;708;51.442;7.016;2024-01-30T04:59:35;11.10;99.90
1429;DHT22;708;51.442;7.016;2024-01-30T05:02:01;11.10;99.90
1429;DHT22;708;51.442;7.016;2024-01-30T05:04:28;11.20;99.90
1429;DHT22;708;51.442;7.016;2024-01-30T05:06:55;11.20;99.90
1429;DHT22;708;51.442;7.016;2024-01-30T05:09:22;11.20;58.50
1429;DHT22;708;51.442;7.016;2024-01-30T05:11:49;11.30;1.00
1429;DHT22;708;51.442;7.016;2024-01-30T05:14:17;11.30;1.00
1429;DHT22;708;51.442;7.016;2024-01-30T05:16:44;11.30;1.00
1429;DHT22;708;51.442;7.016;2024-01-30T05:19:12;11.30;1.00
1429;DHT22;708;51.442;7.016;2024-01-30T05:21:39;11.30;1.00
1429;DHT22;708;51.442;7.016;2024-01-30T05:24:06;11.30;1.00
1429;DHT22;708;51.442;7.016;2024-01-30T05:26:35;11.30;99.90
1429;DHT22;708;51.442;7.016;2024-01-30T05:29:02;11.30;99.90
1429;DHT22;708;51.442;7.016;2024-01-30T05:31:30;11.30;99.90
1429;DHT22;708;51.442;7.016;2024-01-30T05:33:57;11.30;99.90
1429;DHT22;708;51.442;7.016;2024-01-30T05:36:24;11.30;99.90
1429;DHT22;708;51.442;7.016;2024-01-30T05:38:51;11.20;99.90
1429;DHT22;708;51.442;7.016;2024-01-30T05:41:18;11.20;1.00
1429;DHT22;708;51.442;7.016;2024-01-30T05:43:44;11.20;1.00
1429;DHT22;708;51.442;7.016;2024-01-30T05:46:11;11.20;1.00
1429;DHT22;708;51.442;7.016;2024-01-30T05:48:39;11.20;1.00
1429;DHT22;708;51.442;7.016;2024-01-30T05:51:07;11.20;1.00
1429;DHT22;708;51.442;7.016;2024-01-30T05:53:34;11.20;1.00
1429;DHT22;708;51.442;7.016;2024-01-30T05:56:02;11.20;1.00
1429;DHT22;708;51.442;7.016;2024-01-30T05:58:29;11.20;1.00
1429;DHT22;708;51.442;7.016;2024-01-30T06:00:56;11.10;1.00
1429;DHT22;708;51.442;7.016;2024-01-30T06:03:23;11.20;2.40
1429;DHT22;708;51.442;7.016;2024-01-30T06:05:51;11.20;1.00
1429;DHT22;708;51.442;7.016;2024-01-30T06:08:18;11.10;31.90
1429;DHT22;708;51.442;7.016;2024-01-30T06:10:45;11.10;95.00
1429;DHT22;708;51.442;7.016;2024-01-30T06:13:13;11.20;66.70
1429;DHT22;708;51.442;7.016;2024-01-30T06:15:40;11.20;66.60
1429;DHT22;708;51.442;7.016;2024-01-30T06:18:06;11.10;99.90
1429;DHT22;708;51.442;7.016;2024-01-30T06:20:34;11.10;99.90
1429;DHT22;708;51.442;7.016;2024-01-30T06:23:02;11.10;99.90
1429;DHT22;708;51.442;7.016;2024-01-30T06:25:29;11.10;99.90
1429;DHT22;708;51.442;7.016;2024-01-30T06:27:56;11.20;99.90
1429;DHT22;708;51.442;7.016;2024-01-30T06:30:22;11.20;99.90
1429;DHT22;708;51.442;7.016;2024-01-30T06:32:49;11.30;41.50
1429;DHT22;708;51.442;7.016;2024-01-30T06:35:16;11.30;1.00
1429;DHT22;708;51.442;7.016;2024-01-30T06:37:43;11.40;1.00
1429;DHT22;708;51.442;7.016;2024-01-30T06:40:12;11.40;1.00
1429;DHT22;708;51.442;7.016;2024-01-30T06:42:38;11.40;1.00
1429;DHT22;708;51.442;7.016;2024-01-30T06:45:06;11.50;1.00
1429;DHT22;708;51.442;7.016;2024-01-30T06:47:33;11.50;1.00
1429;DHT22;708;51.442;7.016;2024-01-30T06:50:00;11.50;1.00
1429;DHT22;708;51.442;7.016;2024-01-30T06:52:27;11.60;99.90
1429;DHT22;708;51.442;7.016;2024-01-30T06:54:54;11.60;99.90
1429;DHT22;708;51.442;7.016;2024-01-30T06:57:22;11.60;99.90
1429;DHT22;708;51.442;7.016;2024-01-30T06:59:49;11.60;99.90
1429;DHT22;708;51.442;7.016;2024-01-30T07:02:16;11.60;99.90
1429;DHT22;708;51.442;7.016;2024-01-30T07:04:42;11.60;99.90
1429;DHT22;708;51.442;7.016;2024-01-30T07:07:09;11.70;99.90
1429;DHT22;708;51.442;7.016;2024-01-30T07:09:38;11.70;99.90
1429;DHT22;708;51.442;7.016;2024-01-30T07:12:05;11.70;99.90
1429;DHT22;708;51.442;7.016;2024-01-30T07:14:34;11.70;99.90
1429;DHT22;708;51.442;7.016;2024-01-30T07:17:01;11.70;99.90
1429;DHT22;708;51.442;7.016;2024-01-30T07:19:27;11.70;99.90
1429;DHT22;708;51.442;7.016;2024-01-30T07:21:54;11.80;99.90
1429;DHT22;708;51.442;7.016;2024-01-30T07:24:21;11.80;99.90
1429;DHT22;708;51.442;7.016;2024-01-30T07:26:48;11.80;99.90
1429;DHT22;708;51.442;7.016;2024-01-30T07:29:17;11.90;99.90
1429;DHT22;708;51.442;7.016;2024-01-30T07:31:49;11.90;99.90
1429;DHT22;708;51.442;7.016;2024-01-30T07:34:16;11.90;99.90
1429;DHT22;708;51.442;7.016;2024-01-30T07:36:43;12.00;79.90
1429;DHT22;708;51.442;7.016;2024-01-30T07:39:10;12.00;22.20
1429;DHT22;708;51.442;7.016;2024-01-30T07:41:36;12.00;1.00
1429;DHT22;708;51.442;7.016;2024-01-30T07:44:04;12.10;1.00
1429;DHT22;708;51.442;7.016;2024-01-30T07:46:30;12.20;1.00
1429;DHT22;708;51.442;7.016;2024-01-30T07:48:58;12.20;1.00
1429;DHT22;708;51.442;7.016;2024-01-30T07:51:25;12.30;1.00
1429;DHT22;708;51.442;7.016;2024-01-30T07:53:54;12.30;1.00
1429;DHT22;708;51.442;7.016;2024-01-30T07:56:20;12.40;1.00
1429;DHT22;708;51.442;7.016;2024-01-30T07:58:47;12.40;99.90
1429;DHT22;708;51.442;7.016;2024-01-30T08:01:14;12.50;99.90
1429;DHT22;708;51.442;7.016;2024-01-30T08:03:41;12.60;99.90
1429;DHT22;708;51.442;7.016;2024-01-30T08:06:09;12.60;99.90
1429;DHT22;708;51.442;7.016;2024-01-30T08:08:36;12.60;99.90
1429;DHT22;708;51.442;7.016;2024-01-30T08:11:03;12.60;99.90
1429;DHT22;708;51.442;7.016;2024-01-30T08:13:30;12.70;99.90
1429;DHT22;708;51.442;7.016;2024-01-30T08:15:57;12.60;99.90
1429;DHT22;708;51.442;7.016;2024-01-30T08:18:23;12.70;99.90
1429;DHT22;708;51.442;7.016;2024-01-30T08:20:50;12.70;99.90
1429;DHT22;708;51.442;7.016;2024-01-30T08:23:18;12.70;99.90
1429;DHT22;708;51.442;7.016;2024-01-30T08:25:45;12.70;99.90
1429;DHT22;708;51.442;7.016;2024-01-30T08:28:12;12.80;99.90
1429;DHT22;708;51.442;7.016;2024-01-30T08:30:38;12.70;99.90
1429;DHT22;708;51.442;7.016;2024-01-30T08:33:05;12.70;99.90
1429;DHT22;708;51.442;7.016;2024-01-30T08:35:32;12.70;99.90
1429;DHT22;708;51.442;7.016;2024-01-30T08:37:59;12.80;99.90
1429;DHT22;708;51.442;7.016;2024-01-30T08:40:27;12.80;99.90
1429;DHT22;708;51.442;7.016;2024-01-30T08:42:54;12.80;99.90
1429;DHT22;708;51.442;7.016;2024-01-30T08:45:21;12.90;99.90
1429;DHT22;708;51.442;7.016;2024-01-30T08:47:47;13.00;90.70
1429;DHT22;708;51.442;7.016;2024-01-30T08:50:14;13.00;71.60
1429;DHT22;708;51.442;7.016;2024-01-30T08:52:41;13.00;45.70
1429;DHT22;708;51.442;7.016;2024-01-30T08:55:08;13.00;41.30
1429;DHT22;708;51.442;7.016;2024-01-30T08:57:36;13.00;40.60
1429;DHT22;708;51.442;7.016;2024-01-30T09:00:04;13.10;19.40
1429;DHT22;708;51.442;7.016;2024-01-30T09:02:32;13.10;11.70
1429;DHT22;708;51.442;7.016;2024-01-30T09:04:59;13.20;2.20
1429;DHT22;708;51.442;7.016;2024-01-30T09:07:25;13.20;1.00
1429;DHT22;708;51.442;7.016;2024-01-30T09:09:52;13.30;1.00
1429;DHT22;708;51.442;7.016;2024-01-30T09:12:19;13.30;1.00
1429;DHT22;708;51.442;7.016;2024-01-30T09:14:47;13.40;1.00
1429;DHT22;708;51.442;7.016;2024-01-30T09:17:13;13.40;1.00
1429;DHT22;708;51.442;7.016;2024-01-30T09:19:40;13.50;1.00
1429;DHT22;708;51.442;7.016;2024-01-30T09:22:07;13.50;1.00
1429;DHT22;708;51.442;7.016;2024-01-30T09:24:34;13.50;1.00
1429;DHT22;708;51.442;7.016;2024-01-30T09:27:01;13.40;1.00
1429;DHT22;708;51.442;7.016;2024-01-30T09:29:27;13.40;1.00
1429;DHT22;708;51.442;7.016;2024-01-30T09:31:55;13.40;1.00
1429;DHT22;708;51.442;7.016;2024-01-30T09:34:23;13.40;1.00
1429;DHT22;708;51.442;7.016;2024-01-30T09:36:50;13.40;1.00
1429;DHT22;708;51.442;7.016;2024-01-30T09:39:16;13.50;1.00
1429;DHT22;708;51.442;7.016;2024-01-30T09:41:49;13.60;1.00
1429;DHT22;708;51.442;7.016;2024-01-30T09:44:16;13.70;1.00
1429;DHT22;708;51.442;7.016;2024-01-30T09:46:43;13.80;1.00
1429;DHT22;708;51.442;7.016;2024-01-30T09:49:11;13.80;1.00
1429;DHT22;708;51.442;7.016;2024-01-30T09:51:38;14.00;1.00
1429;DHT22;708;51.442;7.016;2024-01-30T09:54:07;14.10;1.00
1429;DHT22;708;51.442;7.016;2024-01-30T09:56:34;14.30;1.00
1429;DHT22;708;51.442;7.016;2024-01-30T09:59:01;14.50;99.90
1429;DHT22;708;51.442;7.016;2024-01-30T10:01:28;14.60;99.90
1429;DHT22;708;51.442;7.016;2024-01-30T10:03:55;14.70;99.90
1429;DHT22;708;51.442;7.016;2024-01-30T10:06:24;14.80;99.90
1429;DHT22;708;51.442;7.016;2024-01-30T10:08:51;14.90;99.90
1429;DHT22;708;51.442;7.016;2024-01-30T10:11:18;15.00;99.90
1429;DHT22;708;51.442;7.016;2024-01-30T10:13:45;15.30;99.90
1429;DHT22;708;51.442;7.016;2024-01-30T10:16:14;15.50;99.90
1429;DHT22;708;51.442;7.016;2024-01-30T10:18:41;15.60;99.90
1429;DHT22;708;51.442;7.016;2024-01-30T10:21:08;15.70;99.90
1429;DHT22;708;51.442;7.016;2024-01-30T10:23:37;15.80;99.90
1429;DHT22;708;51.442;7.016;2024-01-30T10:26:04;15.70;99.90
1429;DHT22;708;51.442;7.016;2024-01-30T10:28:32;15.50;99.90
1429;DHT22;708;51.442;7.016;2024-01-30T10:30:59;15.50;99.90
1429;DHT22;708;51.442;7.016;2024-01-30T10:33:26;15.40;99.90
1429;DHT22;708;51.442;7.016;2024-01-30T10:35:55;15.30;99.90
1429;DHT22;708;51.442;7.016;2024-01-30T10:38:28;15.30;99.90
1429;DHT22;708;51.442;7.016;2024-01-30T10:40:57;15.30;99.90
1429;DHT22;708;51.442;7.016;2024-01-30T10:43:31;15.40;99.90
1429;DHT22;708;51.442;7.016;2024-01-30T10:46:05;15.40;99.90
1429;DHT22;708;51.442;7.016;2024-01-30T10:48:36;15.40;99.90
1429;DHT22;708;51.442;7.016;2024-01-30T10:51:09;15.60;99.90
1429;DHT22;708;51.442;7.016;2024-01-30T10:53:38;15.70;99.90
1429;DHT22;708;51.442;7.016;2024-01-30T10:56:08;15.70;99.90
1429;DHT22;708;51.442;7.016;2024-01-30T10:58:37;15.80;99.90
1429;DHT22;708;51.442;7.016;2024-01-30T11:01:05;15.80;99.90
1429;DHT22;708;51.442;7.016;2024-01-30T11:03:33;15.80;99.90
1429;DHT22;708;51.442;7.016;2024-01-30T11:06:02;15.90;99.90
1429;DHT22;708;51.442;7.016;2024-01-30T11:08:32;16.00;99.90
1429;DHT22;708;51.442;7.016;2024-01-30T11:10:59;16.10;99.90
1429;DHT22;708;51.442;7.016;2024-01-30T11:13:30;16.20;99.90
1429;DHT22;708;51.442;7.016;2024-01-30T11:16:00;16.20;99.90
1429;DHT22;708;51.442;7.016;2024-01-30T11:18:30;16.20;99.90
1429;DHT22;708;51.442;7.016;2024-01-30T11:20:57;16.30;99.90
1429;DHT22;708;51.442;7.016;2024-01-30T11:23:26;16.30;99.90
1429;DHT22;708;51.442;7.016;2024-01-30T11:25:54;16.40;99.90
1429;DHT22;708;51.442;7.016;2024-01-30T11:28:22;16.40;99.90
1429;DHT22;708;51.442;7.016;2024-01-30T11:30:50;16.40;99.90
1429;DHT22;708;51.442;7.016;2024-01-30T11:33:27;16.50;99.90
1429;DHT22;708;51.442;7.016;2024-01-30T11:35:57;16.50;99.90
1429;DHT22;708;51.442;7.016;2024-01-30T11:38:25;16.50;99.90
1429;DHT22;708;51.442;7.016;2024-01-30T11:40:53;16.50;99.90
1429;DHT22;708;51.442;7.016;2024-01-30T11:43:20;16.50;99.90
1429;DHT22;708;51.442;7.016;2024-01-30T11:45:47;16.40;99.90
1429;DHT22;708;51.442;7.016;2024-01-30T11:48:16;16.40;99.90
1429;DHT22;708;51.442;7.016;2024-01-30T11:50:43;16.40;99.90
1429;DHT22;708;51.442;7.016;2024-01-30T11:53:11;16.30;99.90
1429;DHT22;708;51.442;7.016;2024-01-30T11:55:38;16.20;99.90
1429;DHT22;708;51.442;7.016;2024-01-30T11:58:04;16.20;99.90
1429;DHT22;708;51.442;7.016;2024-01-30T12:00:31;16.20;99.90
1429;DHT22;708;51.442;7.016;2024-01-30T12:02:59;16.00;99.90
1429;DHT22;708;51.442;7.016;2024-01-30T12:05:28;16.00;99.90
1429;DHT22;708;51.442;7.016;2024-01-30T12:07:55;15.80;99.90
1429;DHT22;708;51.442;7.016;2024-01-30T12:10:24;15.70;99.90
1429;DHT22;708;51.442;7.016;2024-01-30T12:12:51;15.60;99.90
1429;DHT22;708;51.442;7.016;2024-01-30T12:15:20;15.50;99.90
1429;DHT22;708;51.442;7.016;2024-01-30T12:17:48;15.50;99.90
1429;DHT22;708;51.442;7.016;2024-01-30T12:20:17;15.40;99.90
1429;DHT22;708;51.442;7.016;2024-01-30T12:22:47;15.30;99.90
1429;DHT22;708;51.442;7.016;2024-01-30T12:25:14;15.40;99.90
1429;DHT22;708;51.442;7.016;2024-01-30T12:27:43;15.50;99.90
1429;DHT22;708;51.442;7.016;2024-01-30T12:30:11;15.50;99.90
1429;DHT22;708;51.442;7.016;2024-01-30T12:32:41;15.60;99.90
1429;DHT22;708;51.442;7.016;2024-01-30T12:35:10;15.60;99.90
1429;DHT22;708;51.442;7.016;2024-01-30T12:37:37;15.70;99.90
1429;DHT22;708;51.442;7.016;2024-01-30T12:40:07;15.80;99.90
1429;DHT22;708;51.442;7.016;2024-01-30T12:42:35;15.80;99.90
1429;DHT22;708;51.442;7.016;2024-01-30T12:45:03;15.80;99.90
1429;DHT22;708;51.442;7.016;2024-01-30T12:47:30;15.70;99.90
1429;DHT22;708;51.442;7.016;2024-01-30T12:49:57;15.70;99.90
1429;DHT22;708;51.442;7.016;2024-01-30T12:52:24;15.60;99.90
1429;DHT22;708;51.442;7.016;2024-01-30T12:54:51;15.50;99.90
1429;DHT22;708;51.442;7.016;2024-01-30T12:57:19;15.50;99.90
1429;DHT22;708;51.442;7.016;2024-01-30T12:59:46;15.50;99.90
1429;DHT22;708;51.442;7.016;2024-01-30T13:02:13;15.40;99.90
1429;DHT22;708;51.442;7.016;2024-01-30T13:04:42;15.30;99.90
1429;DHT22;708;51.442;7.016;2024-01-30T13:07:09;15.20;1.00
1429;DHT22;708;51.442;7.016;2024-01-30T13:09:39;15.10;1.00
1429;DHT22;708;51.442;7.016;2024-01-30T13:12:06;15.10;1.00
1429;DHT22;708;51.442;7.016;2024-01-30T13:14:34;15.10;1.00
1429;DHT22;708;51.442;7.016;2024-01-30T13:17:01;15.00;1.00
1429;DHT22;708;51.442;7.016;2024-01-30T13:19:28;14.90;1.00
1429;DHT22;708;51.442;7.016;2024-01-30T13:21:55;14.90;1.00
1429;DHT22;708;51.442;7.016;2024-01-30T13:24:22;14.90;1.00
1429;DHT22;708;51.442;7.016;2024-01-30T13:26:48;14.90;1.00
1429;DHT22;708;51.442;7.016;2024-01-30T13:29:15;14.80;1.00
1429;DHT22;708;51.442;7.016;2024-01-30T13:31:43;14.70;1.00
1429;DHT22;708;51.442;7.016;2024-01-30T13:34:12;14.70;1.00
1429;DHT22;708;51.442;7.016;2024-01-30T13:36:40;14.70;1.00
1429;DHT22;708;51.442;7.016;2024-01-30T13:39:07;14.70;14.10
1429;DHT22;708;51.442;7.016;2024-01-30T13:41:36;14.70;21.50
1429;DHT22;708;51.442;7.016;2024-01-30T13:44:03;14.70;34.70
1429;DHT22;708;51.442;7.016;2024-01-30T13:46:30;14.70;53.50
1429;DHT22;708;51.442;7.016;2024-01-30T13:48:58;14.70;74.80
1429;DHT22;708;51.442;7.016;2024-01-30T13:51:24;14.70;96.50
1429;DHT22;708;51.442;7.016;2024-01-30T13:53:51;14.60;99.90
1429;DHT22;708;51.442;7.016;2024-01-30T13:56:18;14.60;99.90
1429;DHT22;708;51.442;7.016;2024-01-30T13:58:45;14.70;99.90
1429;DHT22;708;51.442;7.016;2024-01-30T14:01:12;14.70;99.90
1429;DHT22;708;51.442;7.016;2024-01-30T14:03:39;14.70;99.90
1429;DHT22;708;51.442;7.016;2024-01-30T14:06:07;14.70;99.90
1429;DHT22;708;51.442;7.016;2024-01-30T14:08:34;14.70;99.90
1429;DHT22;708;51.442;7.016;2024-01-30T14:11:01;14.70;99.90
1429;DHT22;708;51.442;7.016;2024-01-30T14:13:29;14.70;99.90
1429;DHT22;708;51.442;7.016;2024-01-30T14:15:56;14.70;99.90
1429;DHT22;708;51.442;7.016;2024-01-30T14:18:23;14.80;99.90
1429;DHT22;708;51.442;7.016;2024-01-30T14:20:51;14.90;99.90
1429;DHT22;708;51.442;7.016;2024-01-30T14:23:19;15.00;99.90
1429;DHT22;708;51.442;7.016;2024-01-30T14:25:47;15.10;44.50
1429;DHT22;708;51.442;7.016;2024-01-30T14:28:14;15.20;12.20
1429;DHT22;708;51.442;7.016;2024-01-30T14:30:41;15.30;1.00
1429;DHT22;708;51.442;7.016;2024-01-30T14:33:08;15.40;1.00
1429;DHT22;708;51.442;7.016;2024-01-30T14:35:34;15.50;1.00
1429;DHT22;708;51.442;7.016;2024-01-30T14:38:01;15.40;1.00
1429;DHT22;708;51.442;7.016;2024-01-30T14:40:31;15.40;1.00
1429;DHT22;708;51.442;7.016;2024-01-30T14:42:58;15.30;1.00
1429;DHT22;708;51.442;7.016;2024-01-30T14:45:25;15.20;1.00
1429;DHT22;708;51.442;7.016;2024-01-30T14:47:52;15.10;1.00
1429;DHT22;708;51.442;7.016;2024-01-30T14:50:21;15.00;11.70
1429;DHT22;708;51.442;7.016;2024-01-30T14:52:49;15.00;34.60
1429;DHT22;708;51.442;7.016;2024-01-30T14:55:18;14.90;37.50
1429;DHT22;708;51.442;7.016;2024-01-30T14:57:46;14.90;50.20
1429;DHT22;708;51.442;7.016;2024-01-30T15:00:15;14.90;71.70
1429;DHT22;708;51.442;7.016;2024-01-30T15:02:44;14.80;97.50
1429;DHT22;708;51.442;7.016;2024-01-30T15:05:12;14.80;99.90
1429;DHT22;708;51.442;7.016;2024-01-30T15:07:39;14.80;99.90
1429;DHT22;708;51.442;7.016;2024-01-30T15:10:07;14.80;99.90
1429;DHT22;708;51.442;7.016;2024-01-30T15:12:34;14.80;99.90
1429;DHT22;708;51.442;7.016;2024-01-30T15:15:06;14.70;99.90
1429;DHT22;708;51.442;7.016;2024-01-30T15:17:34;14.60;14.40
1429;DHT22;708;51.442;7.016;2024-01-30T15:20:01;14.60;1.00
1429;DHT22;708;51.442;7.016;2024-01-30T15:22:29;14.40;1.00
1429;DHT22;708;51.442;7.016;2024-01-30T15:24:56;14.30;1.00
1429;DHT22;708;51.442;7.016;2024-01-30T15:27:23;14.30;1.00
1429;DHT22;708;51.442;7.016;2024-01-30T15:29:50;14.20;1.00
1429;DHT22;708;51.442;7.016;2024-01-30T15:32:18;14.20;1.00
1429;DHT22;708;51.442;7.016;2024-01-30T15:34:45;14.20;1.00
1429;DHT22;708;51.442;7.016;2024-01-30T15:37:12;14.10;1.00
1429;DHT22;708;51.442;7.016;2024-01-30T15:39:39;14.10;1.00
1429;DHT22;708;51.442;7.016;2024-01-30T15:42:06;14.10;1.00
1429;DHT22;708;51.442;7.016;2024-01-30T15:44:33;14.10;1.00
1429;DHT22;708;51.442;7.016;2024-01-30T15:47:00;14.10;1.00
1429;DHT22;708;51.442;7.016;2024-01-30T15:49:28;14.00;1.00
1429;DHT22;708;51.442;7.016;2024-01-30T15:51:55;14.00;1.00
1429;DHT22;708;51.442;7.016;2024-01-30T15:54:22;13.80;99.90
1429;DHT22;708;51.442;7.016;2024-01-30T15:56:48;13.70;99.90
1429;DHT22;708;51.442;7.016;2024-01-30T15:59:15;13.60;99.90
1429;DHT22;708;51.442;7.016;2024-01-30T16:01:42;13.50;99.90
1429;DHT22;708;51.442;7.016;2024-01-30T16:04:13;13.50;99.90
1429;DHT22;708;51.442;7.016;2024-01-30T16:06:41;13.50;99.90
1429;DHT22;708;51.442;7.016;2024-01-30T16:09:08;13.40;99.90
1429;DHT22;708;51.442;7.016;2024-01-30T16:11:36;13.40;99.90
1429;DHT22;708;51.442;7.016;2024-01-30T16:14:04;13.40;99.90
1429;DHT22;708;51.442;7.016;2024-01-30T16:16:30;13.30;99.90
1429;DHT22;708;51.442;7.016;2024-01-30T16:18:57;13.30;99.90
1429;DHT22;708;51.442;7.016;2024-01-30T16:21:24;13.30;99.90
1429;DHT22;708;51.442;7.016;2024-01-30T16:23:52;13.20;99.90
1429;DHT22;708;51.442;7.016;2024-01-30T16:26:20;13.20;99.90